sensor_id;sensor_type;location;lat;lon;timestamp;temperature;humidity
33368;DHT22;19724;51.114;13.906;2023-02-15T00:00:25;1.40;99.90
33368;DHT22;19724;51.114;13.906;2023-02-15T00:02:51;1.40;99.90
33368;DHT22;19724;51.114;13.906;2023-02-15T00:05:17;1.40;99.90
33368;DHT22;19724;51.114;13.906;2023-02-15T00:07:43;1.30;99.90
33368;DHT22;19724;51.114;13.906;2023-02-15T00:10:09;1.40;99.90
33368;DHT22;19724;51.114;13.906;2023-02-15T00:12:36;1.50;99.90
33368;DHT22;19724;51.114;13.906;2023-02-15T00:15:02;1.40;99.90
33368;DHT22;19724;51.114;13.906;2023-02-15T00:17:28;1.50;99.90
33368;DHT22;19724;51.114;13.906;2023-02-15T00:19:54;1.40;99.90
33368;DHT22;19724;51.114;13.906;2023-02-15T00:22:20;1.40;99.90
33368;DHT22;19724;51.114;13.906;2023-02-15T00:24:46;1.40;99.90
33368;DHT22;19724;51.114;13.906;2023-02-15T00:27:11;1.40;99.90
33368;DHT22;19724;51.114;13.906;2023-02-15T00:29:36;1.40;99.90
33368;DHT22;19724;51.114;13.906;2023-02-15T00:32:02;1.40;99.90
33368;DHT22;19724;51.114;13.906;2023-02-15T00:34:28;1.40;99.90
33368;DHT22;19724;51.114;13.906;2023-02-15T00:36:53;1.40;99.90
33368;DHT22;19724;51.114;13.906;2023-02-15T00:39:19;1.30;99.90
33368;DHT22;19724;51.114;13.906;2023-02-15T00:41:46;1.30;99.90
33368;DHT22;19724;51.114;13.906;2023-02-15T00:44:14;1.30;99.90
33368;DHT22;19724;51.114;13.906;2023-02-15T00:46:40;1.30;99.90
33368;DHT22;19724;51.114;13.906;2023-02-15T00:49:06;1.20;99.90
33368;DHT22;19724;51.114;13.906;2023-02-15T00:51:32;1.20;99.90
33368;DHT22;19724;51.114;13.906;2023-02-15T00:53:57;1.20;99.90
33368;DHT22;19724;51.114;13.906;2023-02-15T00:56:23;1.20;99.90
33368;DHT22;19724;51.114;13.906;2023-02-15T00:58:49;1.10;99.90
33368;DHT22;19724;51.114;13.906;2023-02-15T01:01:16;1.10;99.90
33368;DHT22;19724;51.114;13.906;2023-02-15T01:03:43;1.10;99.90
33368;DHT22;19724;51.114;13.906;2023-02-15T01:06:12;1.10;99.90
33368;DHT22;19724;51.114;13.906;2023-02-15T01:08:38;1.00;99.90
33368;DHT22;19724;51.114;13.906;2023-02-15T01:11:06;1.00;99.90
33368;DHT22;19724;51.114;13.906;2023-02-15T01:13:32;1.00;99.90
33368;DHT22;19724;51.114;13.906;2023-02-15T01:15:57;1.00;99.90
33368;DHT22;19724;51.114;13.906;2023-02-15T01:18:23;1.00;99.90
33368;DHT22;19724;51.114;13.906;2023-02-15T01:20:50;1.00;99.90
33368;DHT22;19724;51.114;13.906;2023-02-15T01:23:16;1.00;99.90
33368;DHT22;19724;51.114;13.906;2023-02-15T01:25:41;1.00;99.90
33368;DHT22;19724;51.114;13.906;2023-02-15T01:28:07;1.00;99.90
33368;DHT22;19724;51.114;13.906;2023-02-15T01:30:33;1.00;99.90
33368;DHT22;19724;51.114;13.906;2023-02-15T01:32:59;1.00;99.90
33368;DHT22;19724;51.114;13.906;2023-02-15T01:35:27;1.00;99.90
33368;DHT22;19724;51.114;13.906;2023-02-15T01:37:53;1.00;99.90
33368;DHT22;19724;51.114;13.906;2023-02-15T01:40:19;0.90;99.90
33368;DHT22;19724;51.114;13.906;2023-02-15T01:42:45;0.90;99.90
33368;DHT22;19724;51.114;13.906;2023-02-15T01:45:21;0.90;99.90
33368;DHT22;19724;51.114;13.906;2023-02-15T01:50:34;0.90;99.90
33368;DHT22;19724;51.114;13.906;2023-02-15T01:55:47;0.90;99.90
33368;DHT22;19724;51.114;13.906;2023-02-15T01:58:14;0.90;99.90
33368;DHT22;19724;51.114;13.906;2023-02-15T02:00:40;0.80;99.90
33368;DHT22;19724;51.114;13.906;2023-02-15T02:03:06;0.80;99.90
33368;DHT22;19724;51.114;13.906;2023-02-15T02:05:32;0.80;99.90
33368;DHT22;19724;51.114;13.906;2023-02-15T02:08:00;0.80;99.90
33368;DHT22;19724;51.114;13.906;2023-02-15T02:10:26;0.80;99.90
33368;DHT22;19724;51.114;13.906;2023-02-15T02:12:54;0.80;99.90
33368;DHT22;19724;51.114;13.906;2023-02-15T02:15:23;0.80;99.90
33368;DHT22;19724;51.114;13.906;2023-02-15T02:18:18;0.80;99.90
33368;DHT22;19724;51.114;13.906;2023-02-15T02:29:46;0.80;99.90
33368;DHT22;19724;51.114;13.906;2023-02-15T02:37:59;0.90;99.90
33368;DHT22;19724;51.114;13.906;2023-02-15T02:43:34;0.80;99.90
33368;DHT22;19724;51.114;13.906;2023-02-15T02:46:24;0.80;99.90
33368;DHT22;19724;51.114;13.906;2023-02-15T02:48:50;0.80;99.90
33368;DHT22;19724;51.114;13.906;2023-02-15T02:51:16;0.80;99.90
33368;DHT22;19724;51.114;13.906;2023-02-15T02:53:51;0.80;99.90
33368;DHT22;19724;51.114;13.906;2023-02-15T02:56:28;0.80;99.90
33368;DHT22;19724;51.114;13.906;2023-02-15T02:59:04;0.80;99.90
33368;DHT22;19724;51.114;13.906;2023-02-15T03:01:39;0.80;99.90
33368;DHT22;19724;51.114;13.906;2023-02-15T03:04:11;0.80;99.90
33368;DHT22;19724;51.114;13.906;2023-02-15T03:06:56;0.80;99.90
33368;DHT22;19724;51.114;13.906;2023-02-15T03:09:36;0.80;99.90
33368;DHT22;19724;51.114;13.906;2023-02-15T03:12:14;0.80;99.90
33368;DHT22;19724;51.114;13.906;2023-02-15T03:14:44;0.80;99.90
33368;DHT22;19724;51.114;13.906;2023-02-15T03:17:12;0.70;99.90
33368;DHT22;19724;51.114;13.906;2023-02-15T03:19:39;0.80;99.90
33368;DHT22;19724;51.114;13.906;2023-02-15T03:22:23;0.80;99.90
33368;DHT22;19724;51.114;13.906;2023-02-15T03:24:59;0.80;99.90
33368;DHT22;19724;51.114;13.906;2023-02-15T03:27:35;0.70;99.90
33368;DHT22;19724;51.114;13.906;2023-02-15T03:30:03;0.70;99.90
33368;DHT22;19724;51.114;13.906;2023-02-15T03:32:33;0.70;99.90
33368;DHT22;19724;51.114;13.906;2023-02-15T03:35:00;0.70;99.90
33368;DHT22;19724;51.114;13.906;2023-02-15T03:37:47;0.60;99.90
33368;DHT22;19724;51.114;13.906;2023-02-15T03:40:24;0.60;99.90
33368;DHT22;19724;51.114;13.906;2023-02-15T03:46:05;0.50;99.90
33368;DHT22;19724;51.114;13.906;2023-02-15T03:48:37;0.50;99.90
33368;DHT22;19724;51.114;13.906;2023-02-15T03:51:07;0.50;99.90
33368;DHT22;19724;51.114;13.906;2023-02-15T03:53:53;0.40;99.90
33368;DHT22;19724;51.114;13.906;2023-02-15T03:56:19;0.40;99.90
33368;DHT22;19724;51.114;13.906;2023-02-15T03:58:45;0.40;99.90
33368;DHT22;19724;51.114;13.906;2023-02-15T04:01:39;0.40;99.90
33368;DHT22;19724;51.114;13.906;2023-02-15T04:04:38;0.30;99.90
33368;DHT22;19724;51.114;13.906;2023-02-15T04:07:08;0.30;99.90
33368;DHT22;19724;51.114;13.906;2023-02-15T04:09:34;0.30;99.90
33368;DHT22;19724;51.114;13.906;2023-02-15T04:12:18;0.30;99.90
33368;DHT22;19724;51.114;13.906;2023-02-15T04:14:45;0.40;99.90
33368;DHT22;19724;51.114;13.906;2023-02-15T04:17:29;0.40;99.90
33368;DHT22;19724;51.114;13.906;2023-02-15T04:19:54;0.40;99.90
33368;DHT22;19724;51.114;13.906;2023-02-15T04:22:38;0.40;99.90
33368;DHT22;19724;51.114;13.906;2023-02-15T04:25:22;0.40;99.90
33368;DHT22;19724;51.114;13.906;2023-02-15T04:27:52;0.30;99.90
33368;DHT22;19724;51.114;13.906;2023-02-15T04:30:21;0.30;99.90
33368;DHT22;19724;51.114;13.906;2023-02-15T04:32:47;0.30;99.90
33368;DHT22;19724;51.114;13.906;2023-02-15T04:35:13;0.30;99.90
33368;DHT22;19724;51.114;13.906;2023-02-15T04:37:40;0.30;99.90
33368;DHT22;19724;51.114;13.906;2023-02-15T04:40:08;0.30;99.90
33368;DHT22;19724;51.114;13.906;2023-02-15T04:42:34;0.30;99.90
33368;DHT22;19724;51.114;13.906;2023-02-15T04:44:59;0.30;99.90
33368;DHT22;19724;51.114;13.906;2023-02-15T04:47:25;0.30;99.90
33368;DHT22;19724;51.114;13.906;2023-02-15T04:49:50;0.40;99.90
33368;DHT22;19724;51.114;13.906;2023-02-15T04:52:16;0.40;99.90
33368;DHT22;19724;51.114;13.906;2023-02-15T04:54:43;0.40;99.90
33368;DHT22;19724;51.114;13.906;2023-02-15T04:57:09;0.40;99.90
33368;DHT22;19724;51.114;13.906;2023-02-15T04:59:35;0.40;99.90
33368;DHT22;19724;51.114;13.906;2023-02-15T05:02:01;0.40;99.90
33368;DHT22;19724;51.114;13.906;2023-02-15T05:04:27;0.50;99.90
33368;DHT22;19724;51.114;13.906;2023-02-15T05:06:53;0.50;99.90
33368;DHT22;19724;51.114;13.906;2023-02-15T05:09:18;0.50;99.90
33368;DHT22;19724;51.114;13.906;2023-02-15T05:11:44;0.50;99.90
33368;DHT22;19724;51.114;13.906;2023-02-15T05:14:09;0.50;99.90
33368;DHT22;19724;51.114;13.906;2023-02-15T05:16:35;0.50;99.90
33368;DHT22;19724;51.114;13.906;2023-02-15T05:19:01;0.50;99.90
33368;DHT22;19724;51.114;13.906;2023-02-15T05:21:26;0.60;99.90
33368;DHT22;19724;51.114;13.906;2023-02-15T05:23:52;0.60;99.90
33368;DHT22;19724;51.114;13.906;2023-02-15T05:26:20;0.60;99.90
33368;DHT22;19724;51.114;13.906;2023-02-15T05:29:04;0.60;99.90
33368;DHT22;19724;51.114;13.906;2023-02-15T05:31:31;0.60;99.90
33368;DHT22;19724;51.114;13.906;2023-02-15T05:33:56;0.60;99.90
33368;DHT22;19724;51.114;13.906;2023-02-15T05:36:22;0.60;99.90
33368;DHT22;19724;51.114;13.906;2023-02-15T05:38:48;0.60;99.90
33368;DHT22;19724;51.114;13.906;2023-02-15T05:41:14;0.60;99.90
33368;DHT22;19724;51.114;13.906;2023-02-15T05:43:39;0.60;99.90
33368;DHT22;19724;51.114;13.906;2023-02-15T05:46:05;0.70;99.90
33368;DHT22;19724;51.114;13.906;2023-02-15T05:48:31;0.60;99.90
33368;DHT22;19724;51.114;13.906;2023-02-15T05:50:59;0.60;99.90
33368;DHT22;19724;51.114;13.906;2023-02-15T05:53:25;0.60;99.90
33368;DHT22;19724;51.114;13.906;2023-02-15T05:55:53;0.70;99.90
33368;DHT22;19724;51.114;13.906;2023-02-15T05:58:22;0.70;99.90
33368;DHT22;19724;51.114;13.906;2023-02-15T06:00:49;0.70;99.90
33368;DHT22;19724;51.114;13.906;2023-02-15T06:03:14;0.60;99.90
33368;DHT22;19724;51.114;13.906;2023-02-15T06:05:40;0.70;99.90
33368;DHT22;19724;51.114;13.906;2023-02-15T06:08:05;0.70;99.90
33368;DHT22;19724;51.114;13.906;2023-02-15T06:10:31;0.70;99.90
33368;DHT22;19724;51.114;13.906;2023-02-15T06:12:56;0.70;99.90
33368;DHT22;19724;51.114;13.906;2023-02-15T06:15:22;0.70;99.90
33368;DHT22;19724;51.114;13.906;2023-02-15T06:17:47;0.70;99.90
33368;DHT22;19724;51.114;13.906;2023-02-15T06:20:14;0.70;99.90
33368;DHT22;19724;51.114;13.906;2023-02-15T06:22:40;0.70;99.90
33368;DHT22;19724;51.114;13.906;2023-02-15T06:25:05;0.70;99.90
33368;DHT22;19724;51.114;13.906;2023-02-15T06:27:31;0.70;99.90
33368;DHT22;19724;51.114;13.906;2023-02-15T06:29:56;0.70;99.90
33368;DHT22;19724;51.114;13.906;2023-02-15T06:32:22;0.70;99.90
33368;DHT22;19724;51.114;13.906;2023-02-15T06:34:48;0.70;99.90
33368;DHT22;19724;51.114;13.906;2023-02-15T06:37:13;0.70;99.90
33368;DHT22;19724;51.114;13.906;2023-02-15T06:39:38;0.70;99.90
33368;DHT22;19724;51.114;13.906;2023-02-15T06:42:04;0.70;99.90
33368;DHT22;19724;51.114;13.906;2023-02-15T06:44:30;0.80;99.90
33368;DHT22;19724;51.114;13.906;2023-02-15T06:46:55;0.80;99.90
33368;DHT22;19724;51.114;13.906;2023-02-15T06:49:21;0.80;99.90
33368;DHT22;19724;51.114;13.906;2023-02-15T06:51:46;0.80;99.90
33368;DHT22;19724;51.114;13.906;2023-02-15T06:54:12;0.80;99.90
33368;DHT22;19724;51.114;13.906;2023-02-15T06:56:37;0.80;99.90
33368;DHT22;19724;51.114;13.906;2023-02-15T06:59:04;0.90;99.90
33368;DHT22;19724;51.114;13.906;2023-02-15T07:01:30;0.90;99.90
33368;DHT22;19724;51.114;13.906;2023-02-15T07:03:55;0.90;99.90
33368;DHT22;19724;51.114;13.906;2023-02-15T07:06:21;1.00;99.90
33368;DHT22;19724;51.114;13.906;2023-02-15T07:08:46;1.00;99.90
33368;DHT22;19724;51.114;13.906;2023-02-15T07:11:12;1.00;99.90
33368;DHT22;19724;51.114;13.906;2023-02-15T07:13:56;1.10;99.90
33368;DHT22;19724;51.114;13.906;2023-02-15T07:16:22;1.10;99.90
33368;DHT22;19724;51.114;13.906;2023-02-15T07:18:47;1.20;99.90
33368;DHT22;19724;51.114;13.906;2023-02-15T07:21:14;1.20;99.90
33368;DHT22;19724;51.114;13.906;2023-02-15T07:23:40;1.30;99.90
33368;DHT22;19724;51.114;13.906;2023-02-15T07:26:06;1.30;99.90
33368;DHT22;19724;51.114;13.906;2023-02-15T07:28:35;1.40;99.90
33368;DHT22;19724;51.114;13.906;2023-02-15T07:31:02;1.40;99.90
33368;DHT22;19724;51.114;13.906;2023-02-15T07:33:33;1.50;99.90
33368;DHT22;19724;51.114;13.906;2023-02-15T07:36:01;1.50;99.90
33368;DHT22;19724;51.114;13.906;2023-02-15T07:38:30;1.60;99.90
33368;DHT22;19724;51.114;13.906;2023-02-15T07:41:07;1.60;99.90
33368;DHT22;19724;51.114;13.906;2023-02-15T07:43:35;1.70;99.90
33368;DHT22;19724;51.114;13.906;2023-02-15T07:46:03;1.80;99.90
33368;DHT22;19724;51.114;13.906;2023-02-15T07:48:29;1.90;99.90
33368;DHT22;19724;51.114;13.906;2023-02-15T07:51:04;2.00;99.90
33368;DHT22;19724;51.114;13.906;2023-02-15T07:53:30;2.00;99.90
33368;DHT22;19724;51.114;13.906;2023-02-15T07:56:04;2.10;99.90
33368;DHT22;19724;51.114;13.906;2023-02-15T07:58:30;2.20;99.90
33368;DHT22;19724;51.114;13.906;2023-02-15T08:01:14;2.20;99.90
33368;DHT22;19724;51.114;13.906;2023-02-15T08:03:40;2.30;99.90
33368;DHT22;19724;51.114;13.906;2023-02-15T08:06:06;2.40;99.90
33368;DHT22;19724;51.114;13.906;2023-02-15T08:08:34;2.50;99.90
33368;DHT22;19724;51.114;13.906;2023-02-15T08:11:06;2.60;99.90
33368;DHT22;19724;51.114;13.906;2023-02-15T08:16:59;2.70;99.90
33368;DHT22;19724;51.114;13.906;2023-02-15T08:19:30;2.80;99.90
33368;DHT22;19724;51.114;13.906;2023-02-15T08:22:02;3.00;99.90
33368;DHT22;19724;51.114;13.906;2023-02-15T08:24:30;3.10;99.90
33368;DHT22;19724;51.114;13.906;2023-02-15T08:26:58;3.20;99.90
33368;DHT22;19724;51.114;13.906;2023-02-15T08:29:26;3.40;99.90
33368;DHT22;19724;51.114;13.906;2023-02-15T08:32:07;3.50;99.90
33368;DHT22;19724;51.114;13.906;2023-02-15T08:34:36;3.70;99.90
33368;DHT22;19724;51.114;13.906;2023-02-15T08:37:02;3.90;99.90
33368;DHT22;19724;51.114;13.906;2023-02-15T08:39:28;4.10;99.90
33368;DHT22;19724;51.114;13.906;2023-02-15T08:41:53;4.30;99.90
33368;DHT22;19724;51.114;13.906;2023-02-15T08:44:19;4.50;99.90
33368;DHT22;19724;51.114;13.906;2023-02-15T08:46:48;4.70;99.90
33368;DHT22;19724;51.114;13.906;2023-02-15T08:49:19;5.00;99.90
33368;DHT22;19724;51.114;13.906;2023-02-15T08:51:46;5.20;99.90
33368;DHT22;19724;51.114;13.906;2023-02-15T08:54:15;5.50;99.90
33368;DHT22;19724;51.114;13.906;2023-02-15T08:56:42;5.60;99.90
33368;DHT22;19724;51.114;13.906;2023-02-15T08:59:14;5.80;99.90
33368;DHT22;19724;51.114;13.906;2023-02-15T09:01:40;6.00;99.90
33368;DHT22;19724;51.114;13.906;2023-02-15T09:04:07;6.10;99.90
33368;DHT22;19724;51.114;13.906;2023-02-15T09:06:34;6.20;99.90
33368;DHT22;19724;51.114;13.906;2023-02-15T09:08:59;6.40;99.90
33368;DHT22;19724;51.114;13.906;2023-02-15T09:11:27;6.60;99.90
33368;DHT22;19724;51.114;13.906;2023-02-15T09:13:59;6.80;99.90
33368;DHT22;19724;51.114;13.906;2023-02-15T09:16:28;6.90;99.90
33368;DHT22;19724;51.114;13.906;2023-02-15T09:18:54;7.10;99.90
33368;DHT22;19724;51.114;13.906;2023-02-15T09:21:21;7.20;99.90
33368;DHT22;19724;51.114;13.906;2023-02-15T09:23:49;7.20;99.90
33368;DHT22;19724;51.114;13.906;2023-02-15T09:26:18;7.30;99.90
33368;DHT22;19724;51.114;13.906;2023-02-15T09:28:44;7.40;99.90
33368;DHT22;19724;51.114;13.906;2023-02-15T09:31:12;7.30;99.90
33368;DHT22;19724;51.114;13.906;2023-02-15T09:33:39;7.40;99.90
33368;DHT22;19724;51.114;13.906;2023-02-15T09:36:13;7.70;99.90
33368;DHT22;19724;51.114;13.906;2023-02-15T09:38:39;7.80;99.90
33368;DHT22;19724;51.114;13.906;2023-02-15T10:08:57;9.00;99.90
33368;DHT22;19724;51.114;13.906;2023-02-15T10:11:59;9.10;99.90
33368;DHT22;19724;51.114;13.906;2023-02-15T10:17:29;9.50;99.90
33368;DHT22;19724;51.114;13.906;2023-02-15T10:25:46;9.80;99.90
33368;DHT22;19724;51.114;13.906;2023-02-15T10:37:02;10.60;99.90
33368;DHT22;19724;51.114;13.906;2023-02-15T10:40:05;10.70;99.90
33368;DHT22;19724;51.114;13.906;2023-02-15T10:42:50;10.80;99.90
33368;DHT22;19724;51.114;13.906;2023-02-15T10:45:23;10.70;99.90
33368;DHT22;19724;51.114;13.906;2023-02-15T10:50:57;10.90;99.90
33368;DHT22;19724;51.114;13.906;2023-02-15T11:01:49;11.70;99.90
33368;DHT22;19724;51.114;13.906;2023-02-15T11:06:50;11.90;99.90
33368;DHT22;19724;51.114;13.906;2023-02-15T11:09:19;11.80;99.90
33368;DHT22;19724;51.114;13.906;2023-02-15T11:11:52;11.90;99.90
33368;DHT22;19724;51.114;13.906;2023-02-15T11:17:17;12.40;99.90
33368;DHT22;19724;51.114;13.906;2023-02-15T11:19:56;12.60;99.90
33368;DHT22;19724;51.114;13.906;2023-02-15T11:22:23;12.40;99.90
33368;DHT22;19724;51.114;13.906;2023-02-15T11:24:49;12.40;99.90
33368;DHT22;19724;51.114;13.906;2023-02-15T11:27:22;12.60;99.90
33368;DHT22;19724;51.114;13.906;2023-02-15T11:32:30;13.10;99.90
33368;DHT22;19724;51.114;13.906;2023-02-15T11:35:15;13.10;99.90
33368;DHT22;19724;51.114;13.906;2023-02-15T11:37:50;13.00;99.90
33368;DHT22;19724;51.114;13.906;2023-02-15T11:40:31;13.20;99.90
33368;DHT22;19724;51.114;13.906;2023-02-15T11:45:49;13.60;99.90
33368;DHT22;19724;51.114;13.906;2023-02-15T11:48:15;13.40;99.90
33368;DHT22;19724;51.114;13.906;2023-02-15T11:50:42;13.40;99.90
33368;DHT22;19724;51.114;13.906;2023-02-15T11:53:13;13.40;99.90
33368;DHT22;19724;51.114;13.906;2023-02-15T11:55:43;13.40;99.90
33368;DHT22;19724;51.114;13.906;2023-02-15T11:59:02;13.50;99.90
33368;DHT22;19724;51.114;13.906;2023-02-15T12:03:50;13.60;99.90
33368;DHT22;19724;51.114;13.906;2023-02-15T12:06:26;13.70;99.90
33368;DHT22;19724;51.114;13.906;2023-02-15T12:09:17;13.60;99.90
33368;DHT22;19724;51.114;13.906;2023-02-15T12:11:45;13.90;99.90
33368;DHT22;19724;51.114;13.906;2023-02-15T12:14:12;14.10;99.90
33368;DHT22;19724;51.114;13.906;2023-02-15T12:16:49;14.20;99.90
33368;DHT22;19724;51.114;13.906;2023-02-15T12:19:37;14.40;99.90
33368;DHT22;19724;51.114;13.906;2023-02-15T12:22:06;14.40;99.90
33368;DHT22;19724;51.114;13.906;2023-02-15T12:24:37;14.10;99.90
33368;DHT22;19724;51.114;13.906;2023-02-15T12:27:10;13.80;99.90
33368;DHT22;19724;51.114;13.906;2023-02-15T12:29:44;13.80;99.90
33368;DHT22;19724;51.114;13.906;2023-02-15T12:32:31;14.10;99.90
33368;DHT22;19724;51.114;13.906;2023-02-15T12:35:15;14.10;99.90
33368;DHT22;19724;51.114;13.906;2023-02-15T12:37:53;14.30;99.90
33368;DHT22;19724;51.114;13.906;2023-02-15T12:40:30;14.60;99.90
33368;DHT22;19724;51.114;13.906;2023-02-15T12:42:56;14.70;99.90
33368;DHT22;19724;51.114;13.906;2023-02-15T12:45:31;14.70;99.90
33368;DHT22;19724;51.114;13.906;2023-02-15T12:50:39;14.50;99.90
33368;DHT22;19724;51.114;13.906;2023-02-15T12:53:18;14.40;99.90
33368;DHT22;19724;51.114;13.906;2023-02-15T12:55:59;14.40;99.90
33368;DHT22;19724;51.114;13.906;2023-02-15T12:58:28;14.30;99.90
33368;DHT22;19724;51.114;13.906;2023-02-15T13:01:22;14.10;99.90
33368;DHT22;19724;51.114;13.906;2023-02-15T13:04:03;14.20;99.90
33368;DHT22;19724;51.114;13.906;2023-02-15T13:06:33;14.30;99.90
33368;DHT22;19724;51.114;13.906;2023-02-15T13:09:15;14.40;99.90
33368;DHT22;19724;51.114;13.906;2023-02-15T13:11:43;14.40;99.90
33368;DHT22;19724;51.114;13.906;2023-02-15T13:14:19;14.40;99.90
33368;DHT22;19724;51.114;13.906;2023-02-15T13:16:50;14.60;99.90
33368;DHT22;19724;51.114;13.906;2023-02-15T13:19:23;14.60;99.90
33368;DHT22;19724;51.114;13.906;2023-02-15T13:21:53;14.60;99.90
33368;DHT22;19724;51.114;13.906;2023-02-15T13:24:24;14.50;99.90
33368;DHT22;19724;51.114;13.906;2023-02-15T13:26:52;14.30;99.90
33368;DHT22;19724;51.114;13.906;2023-02-15T13:29:25;14.30;99.90
33368;DHT22;19724;51.114;13.906;2023-02-15T13:31:52;14.30;99.90
33368;DHT22;19724;51.114;13.906;2023-02-15T13:34:28;14.30;99.90
33368;DHT22;19724;51.114;13.906;2023-02-15T13:37:01;14.30;99.90
33368;DHT22;19724;51.114;13.906;2023-02-15T13:40:02;14.20;99.90
33368;DHT22;19724;51.114;13.906;2023-02-15T13:51:30;13.50;99.90
33368;DHT22;19724;51.114;13.906;2023-02-15T13:53:59;13.50;99.90
33368;DHT22;19724;51.114;13.906;2023-02-15T14:10:26;13.30;99.90
33368;DHT22;19724;51.114;13.906;2023-02-15T14:12:58;13.40;99.90
33368;DHT22;19724;51.114;13.906;2023-02-15T14:15:56;13.40;99.90
33368;DHT22;19724;51.114;13.906;2023-02-15T14:18:48;13.30;99.90
33368;DHT22;19724;51.114;13.906;2023-02-15T14:27:23;13.20;99.90
33368;DHT22;19724;51.114;13.906;2023-02-15T14:30:02;13.20;99.90
33368;DHT22;19724;51.114;13.906;2023-02-15T14:32:31;13.00;99.90
33368;DHT22;19724;51.114;13.906;2023-02-15T14:35:05;12.90;99.90
33368;DHT22;19724;51.114;13.906;2023-02-15T14:46:30;12.10;99.90
33368;DHT22;19724;51.114;13.906;2023-02-15T14:49:12;11.40;99.90
33368;DHT22;19724;51.114;13.906;2023-02-15T14:59:50;9.90;99.90
33368;DHT22;19724;51.114;13.906;2023-02-15T15:02:41;9.80;99.90
33368;DHT22;19724;51.114;13.906;2023-02-15T15:05:10;9.70;99.90
33368;DHT22;19724;51.114;13.906;2023-02-15T15:07:37;9.50;99.90
33368;DHT22;19724;51.114;13.906;2023-02-15T15:10:33;9.40;99.90
33368;DHT22;19724;51.114;13.906;2023-02-15T15:13:34;9.30;99.90
33368;DHT22;19724;51.114;13.906;2023-02-15T15:16:24;9.10;99.90
33368;DHT22;19724;51.114;13.906;2023-02-15T15:18:50;8.90;99.90
33368;DHT22;19724;51.114;13.906;2023-02-15T15:21:54;8.70;99.90
33368;DHT22;19724;51.114;13.906;2023-02-15T15:35:44;7.70;99.90
33368;DHT22;19724;51.114;13.906;2023-02-15T15:41:07;7.30;99.90
33368;DHT22;19724;51.114;13.906;2023-02-15T15:47:14;6.90;99.90
33368;DHT22;19724;51.114;13.906;2023-02-15T15:49:44;6.70;99.90
33368;DHT22;19724;51.114;13.906;2023-02-15T15:52:18;6.40;99.90
33368;DHT22;19724;51.114;13.906;2023-02-15T15:54:45;6.30;99.90
33368;DHT22;19724;51.114;13.906;2023-02-15T15:57:22;6.30;99.90
33368;DHT22;19724;51.114;13.906;2023-02-15T15:59:50;6.10;99.90
33368;DHT22;19724;51.114;13.906;2023-02-15T16:02:18;6.00;99.90
33368;DHT22;19724;51.114;13.906;2023-02-15T16:04:45;5.90;99.90
33368;DHT22;19724;51.114;13.906;2023-02-15T16:07:23;5.80;99.90
33368;DHT22;19724;51.114;13.906;2023-02-15T16:09:59;5.70;99.90
33368;DHT22;19724;51.114;13.906;2023-02-15T16:12:27;5.60;99.90
33368;DHT22;19724;51.114;13.906;2023-02-15T16:14:54;5.40;99.90
33368;DHT22;19724;51.114;13.906;2023-02-15T16:17:28;5.30;99.90
33368;DHT22;19724;51.114;13.906;2023-02-15T16:20:34;5.20;99.90
33368;DHT22;19724;51.114;13.906;2023-02-15T16:28:51;4.90;99.90
33368;DHT22;19724;51.114;13.906;2023-02-15T16:31:21;4.80;99.90
33368;DHT22;19724;51.114;13.906;2023-02-15T16:33:54;4.70;99.90
33368;DHT22;19724;51.114;13.906;2023-02-15T16:41:25;4.50;99.90
33368;DHT22;19724;51.114;13.906;2023-02-15T16:43:53;4.30;99.90
33368;DHT22;19724;51.114;13.906;2023-02-15T16:46:31;4.20;99.90
33368;DHT22;19724;51.114;13.906;2023-02-15T16:49:03;4.20;99.90
33368;DHT22;19724;51.114;13.906;2023-02-15T16:51:32;4.10;99.90
33368;DHT22;19724;51.114;13.906;2023-02-15T16:54:05;4.10;99.90
33368;DHT22;19724;51.114;13.906;2023-02-15T16:56:31;4.00;99.90
33368;DHT22;19724;51.114;13.906;2023-02-15T16:58:58;4.00;99.90
33368;DHT22;19724;51.114;13.906;2023-02-15T17:01:29;3.90;99.90
33368;DHT22;19724;51.114;13.906;2023-02-15T17:04:28;3.80;99.90
33368;DHT22;19724;51.114;13.906;2023-02-15T17:07:06;3.80;99.90
33368;DHT22;19724;51.114;13.906;2023-02-15T17:09:54;3.70;99.90
33368;DHT22;19724;51.114;13.906;2023-02-15T17:12:45;3.70;99.90
33368;DHT22;19724;51.114;13.906;2023-02-15T17:15:33;3.70;99.90
33368;DHT22;19724;51.114;13.906;2023-02-15T17:18:16;3.70;99.90
33368;DHT22;19724;51.114;13.906;2023-02-15T17:20:43;3.60;99.90
33368;DHT22;19724;51.114;13.906;2023-02-15T17:23:28;3.50;99.90
33368;DHT22;19724;51.114;13.906;2023-02-15T17:25:55;3.40;99.90
33368;DHT22;19724;51.114;13.906;2023-02-15T17:28:23;3.40;99.90
33368;DHT22;19724;51.114;13.906;2023-02-15T17:30:51;3.30;99.90
33368;DHT22;19724;51.114;13.906;2023-02-15T17:33:37;3.30;99.90
33368;DHT22;19724;51.114;13.906;2023-02-15T17:39:02;3.20;99.90
33368;DHT22;19724;51.114;13.906;2023-02-15T17:41:33;3.10;99.90
33368;DHT22;19724;51.114;13.906;2023-02-15T17:44:00;3.10;99.90
33368;DHT22;19724;51.114;13.906;2023-02-15T17:46:29;3.00;99.90
33368;DHT22;19724;51.114;13.906;2023-02-15T17:48:58;3.00;99.90
33368;DHT22;19724;51.114;13.906;2023-02-15T17:51:24;2.80;99.90
33368;DHT22;19724;51.114;13.906;2023-02-15T17:53:58;2.70;99.90
33368;DHT22;19724;51.114;13.906;2023-02-15T17:56:43;2.70;99.90
33368;DHT22;19724;51.114;13.906;2023-02-15T17:59:08;2.60;99.90
33368;DHT22;19724;51.114;13.906;2023-02-15T18:01:49;2.60;99.90
33368;DHT22;19724;51.114;13.906;2023-02-15T18:04:36;2.70;99.90
33368;DHT22;19724;51.114;13.906;2023-02-15T18:07:23;2.60;99.90
33368;DHT22;19724;51.114;13.906;2023-02-15T18:10:16;2.60;99.90
33368;DHT22;19724;51.114;13.906;2023-02-15T18:13:00;2.70;99.90
33368;DHT22;19724;51.114;13.906;2023-02-15T18:15:41;2.70;99.90
33368;DHT22;19724;51.114;13.906;2023-02-15T18:18:14;2.60;99.90
33368;DHT22;19724;51.114;13.906;2023-02-15T18:20:46;2.60;99.90
33368;DHT22;19724;51.114;13.906;2023-02-15T18:23:14;2.50;99.90
33368;DHT22;19724;51.114;13.906;2023-02-15T18:25:40;2.50;99.90
33368;DHT22;19724;51.114;13.906;2023-02-15T18:28:16;2.40;99.90
33368;DHT22;19724;51.114;13.906;2023-02-15T18:30:41;2.40;99.90
33368;DHT22;19724;51.114;13.906;2023-02-15T18:33:51;2.40;99.90
33368;DHT22;19724;51.114;13.906;2023-02-15T18:36:21;2.40;99.90
33368;DHT22;19724;51.114;13.906;2023-02-15T18:38:48;2.30;99.90
33368;DHT22;19724;51.114;13.906;2023-02-15T18:41:18;2.30;99.90
33368;DHT22;19724;51.114;13.906;2023-02-15T18:43:44;2.20;99.90
33368;DHT22;19724;51.114;13.906;2023-02-15T18:46:11;2.20;99.90
33368;DHT22;19724;51.114;13.906;2023-02-15T18:48:36;2.20;99.90
33368;DHT22;19724;51.114;13.906;2023-02-15T18:51:02;2.20;99.90
33368;DHT22;19724;51.114;13.906;2023-02-15T18:53:28;2.20;99.90